Main page
METAR-TAF:

METAR-TAF

Airports :

Chinggis Khaan International Airport

Ulan Bator, Mongolia

latitude: 47-55N, longitude: 106-52E, elevation: 1306 m

Current weather observation

The report was made 8 minutes ago, at 21:30 UTC
Wind 2 kt from variable directions
Temperature -8°C
Humidity 85%
Pressure 1025 hPa
Visibility 10 km or more
no clouds below 1500 m and no cumulonimbus

METAR: ZMUB 172130Z VRB01MPS CAVOK M08/M10 Q1025 NOSIG RMK QFE660.9 84

Time: 05:38 (21:38 UTC)

Forecast

The report was made 4 hours and 58 minutes ago, at 16:40 UTC
Forecast valid from 17 at 18 UTC to 18 at 24 UTC
Wind 4 kt from variable directions
Visibility 10 km or more
no clouds below 1500 m and no cumulonimbus
Becoming
from 18 at 11 UTC to 18 at 13 UTC
Wind 10 kt from the South/Southeast
Scattered clouds at a height of 3300 ft
Scattered clouds at a height of 10000 ft

TAF: ZMUB 171640Z 1718/1824 VRB02MPS CAVOK TNM07/1722Z TX12/1807Z BECMG 1811/1813 16005MPS SCT033 SCT100

Weather observations and forecasts of more than 4000 airports (METAR and TAF reports).

The available stations are represented by yellow and red dots on the map.

Hover mouse over dot to see the name of the station.

Then click to see weather observations and forecasts.

To change the map : click on the green buttons with a black cross to zoom in, on the green button with a dash to zoom out, or on the green arrows for adjacent maps.


METAR-TAF: